createdAt,value
2022-11-20T00:00:56.818Z,1
2022-11-20T00:02:56.731Z,1
2022-11-20T00:05:01.864Z,1
2022-11-20T00:06:56.730Z,1
2022-11-20T00:08:56.369Z,1
2022-11-20T00:10:58.028Z,1
2022-11-20T00:12:57.118Z,1
2022-11-20T00:15:00.452Z,1
2022-11-20T00:16:59.952Z,1
2022-11-20T00:18:56.449Z,1
2022-11-20T00:20:56.842Z,1
2022-11-20T00:23:01.877Z,1
2022-11-20T00:27:00.229Z,1
2022-11-20T00:28:59.946Z,1
2022-11-20T00:30:56.815Z,1
2022-11-20T00:33:01.569Z,1
2022-11-20T00:34:57.189Z,1
2022-11-20T00:36:56.708Z,1
2022-11-20T00:38:58.900Z,1
2022-11-20T00:40:56.623Z,1
2022-11-20T00:42:56.990Z,1
2022-11-20T00:45:02.274Z,1
2022-11-20T00:46:56.769Z,1
2022-11-20T00:48:56.427Z,1
2022-11-20T00:51:01.817Z,1
2022-11-20T00:52:56.733Z,1
2022-11-20T00:54:59.890Z,1
2022-11-20T00:56:56.689Z,1
2022-11-20T00:59:00.499Z,1
2022-11-20T01:00:59.842Z,1
2022-11-20T01:02:56.621Z,1
2022-11-20T01:04:56.765Z,1
2022-11-20T01:07:00.916Z,1
2022-11-20T01:08:56.349Z,1
2022-11-20T01:10:56.877Z,1
2022-11-20T01:13:04.608Z,1
2022-11-20T01:15:00.281Z,1
2022-11-20T01:16:56.768Z,1
2022-11-20T01:19:00.087Z,1
2022-11-20T01:20:56.928Z,1
2022-11-20T01:22:56.767Z,1
2022-11-20T01:24:57.681Z,1
2022-11-20T01:27:00.231Z,1
2022-11-20T01:28:56.938Z,1
2022-11-20T01:30:58.512Z,1
2022-11-20T01:32:56.774Z,1
2022-11-20T01:35:05.705Z,1
2022-11-20T01:36:56.794Z,1
2022-11-20T01:38:56.752Z,1
2022-11-20T01:42:56.694Z,1
2022-11-20T01:44:57.007Z,1
2022-11-20T01:47:00.395Z,1
2022-11-20T01:48:56.921Z,1
2022-11-20T01:50:57.021Z,1
2022-11-20T01:53:03.053Z,1
2022-11-20T01:54:57.231Z,1
2022-11-20T01:56:56.650Z,1
2022-11-20T01:59:00.339Z,1
2022-11-20T02:00:56.470Z,1
2022-11-20T02:03:02.824Z,1
2022-11-20T02:04:56.538Z,1
2022-11-20T02:06:56.869Z,1
2022-11-20T02:09:01.684Z,1
2022-11-20T02:11:00.400Z,1
2022-11-20T02:12:56.739Z,1
2022-11-20T02:14:56.890Z,1
2022-11-20T02:17:02.270Z,1
2022-11-20T02:18:59.917Z,1
2022-11-20T02:20:57.218Z,1
2022-11-20T02:22:56.877Z,1
2022-11-20T02:24:56.846Z,1
2022-11-20T02:29:00.108Z,1
2022-11-20T02:30:57.097Z,1
2022-11-20T02:32:59.792Z,1
2022-11-20T02:35:00.439Z,1
2022-11-20T02:37:03.668Z,1
2022-11-20T02:38:56.842Z,1
2022-11-20T02:40:56.581Z,1
2022-11-20T02:42:56.730Z,1
2022-11-20T02:46:56.872Z,1
2022-11-20T02:48:56.820Z,1
2022-11-20T02:50:59.015Z,1
2022-11-20T02:52:56.754Z,1
2022-11-20T02:54:56.883Z,1
2022-11-20T02:56:56.955Z,1
2022-11-20T02:58:58.225Z,1
2022-11-20T03:00:56.926Z,1
2022-11-20T03:02:58.678Z,1
2022-11-20T03:05:00.289Z,1
2022-11-20T03:06:56.959Z,1
2022-11-20T03:09:00.382Z,1
2022-11-20T03:10:56.720Z,1
2022-11-20T03:12:56.841Z,1
2022-11-20T03:14:56.711Z,1
2022-11-20T03:16:57.067Z,1
2022-11-20T03:19:00.971Z,1
2022-11-20T03:20:57.103Z,1
2022-11-20T03:22:59.904Z,1
2022-11-20T03:25:00.413Z,1
2022-11-20T03:27:00.307Z,1
2022-11-20T03:29:00.362Z,1
2022-11-20T03:30:56.481Z,1
2022-11-20T03:32:56.663Z,1
2022-11-20T03:34:58.780Z,1
2022-11-20T03:36:56.872Z,1
2022-11-20T03:38:56.786Z,1
2022-11-20T03:41:01.891Z,1
2022-11-20T03:43:03.518Z,1
2022-11-20T03:44:56.766Z,1
2022-11-20T03:46:56.874Z,1
2022-11-20T03:48:58.157Z,1
2022-11-20T03:50:56.412Z,1
2022-11-20T03:54:56.756Z,1
2022-11-20T03:57:00.389Z,1
2022-11-20T04:00:56.580Z,1
2022-11-20T04:02:58.621Z,1
2022-11-20T04:05:00.266Z,1
2022-11-20T04:07:00.366Z,1
2022-11-20T04:08:56.805Z,1
2022-11-20T04:11:03.575Z,1
2022-11-20T04:12:57.172Z,1
2022-11-20T04:15:01.896Z,1
2022-11-20T04:16:56.874Z,1
2022-11-20T04:19:00.352Z,1
2022-11-20T04:20:56.467Z,1
2022-11-20T04:22:56.708Z,1
2022-11-20T04:24:58.492Z,1
2022-11-20T04:26:56.846Z,1
2022-11-20T04:28:57.322Z,1
2022-11-20T04:30:57.290Z,1
2022-11-20T04:32:56.742Z,1
2022-11-20T04:35:03.327Z,1
2022-11-20T04:36:56.847Z,1
2022-11-20T04:38:58.515Z,1
2022-11-20T04:41:00.358Z,1
2022-11-20T04:43:00.537Z,1
2022-11-20T04:44:56.864Z,1
2022-11-20T04:47:03.607Z,1
2022-11-20T04:48:56.896Z,1
2022-11-20T04:51:00.160Z,1
2022-11-20T04:53:00.168Z,1
2022-11-20T04:54:56.446Z,1
2022-11-20T04:56:56.706Z,1
2022-11-20T04:58:58.484Z,1
2022-11-20T05:00:56.854Z,1
2022-11-20T05:02:56.742Z,1
2022-11-20T05:04:58.618Z,1
2022-11-20T05:06:57.056Z,1
2022-11-20T05:08:59.926Z,1
2022-11-20T05:11:00.535Z,1
2022-11-20T05:12:56.981Z,1
2022-11-20T05:14:57.076Z,1
2022-11-20T05:18:56.851Z,1
2022-11-20T05:20:57.012Z,1
2022-11-20T05:22:57.815Z,1
2022-11-20T05:24:56.587Z,1
2022-11-20T05:26:56.830Z,1
2022-11-20T05:28:56.841Z,1
2022-11-20T05:31:01.015Z,1
2022-11-20T05:32:59.962Z,1
2022-11-20T05:35:00.220Z,1
2022-11-20T05:36:57.108Z,1
2022-11-20T05:39:07.527Z,1
2022-11-20T05:40:56.933Z,1
2022-11-20T05:43:03.321Z,0
2022-11-20T05:44:57.055Z,0
2022-11-20T05:47:00.105Z,0
2022-11-20T05:48:56.737Z,0
2022-11-20T05:50:56.480Z,0.1
2022-11-20T05:52:59.940Z,0.2
2022-11-20T05:54:56.711Z,0.2
2022-11-20T05:56:57.060Z,0.3
2022-11-20T05:58:56.826Z,0.6
2022-11-20T06:01:00.453Z,1.2
2022-11-20T06:02:57.053Z,1.7
2022-11-20T06:04:56.982Z,2.1
2022-11-20T06:06:58.620Z,2.9
2022-11-20T06:09:00.324Z,4.1
2022-11-20T06:10:59.854Z,5.5
2022-11-20T06:12:56.857Z,6.7
2022-11-20T06:15:07.196Z,7.4
2022-11-20T06:16:56.849Z,11
2022-11-20T06:18:59.906Z,15.6
2022-11-20T06:20:57.178Z,18.2
2022-11-20T06:23:03.605Z,22.2
2022-11-20T06:24:56.732Z,25.8
2022-11-20T06:26:59.988Z,31.5
2022-11-20T06:29:00.044Z,34.8
2022-11-20T06:30:57.123Z,47
2022-11-20T06:32:57.009Z,49.4
2022-11-20T06:35:04.846Z,60.3
2022-11-20T06:36:57.189Z,66.7
2022-11-20T06:39:04.272Z,73.7
2022-11-20T06:41:00.054Z,85.6
2022-11-20T06:43:00.634Z,127.7
2022-11-20T06:44:57.178Z,221.4
2022-11-20T06:46:56.883Z,314.2
2022-11-20T06:48:56.778Z,365
2022-11-20T06:50:58.665Z,492.7
2022-11-20T06:52:57.005Z,445.9
2022-11-20T06:54:59.239Z,468.7
2022-11-20T06:56:57.159Z,468.7
2022-11-20T06:58:56.912Z,424.1
2022-11-20T07:00:57.965Z,468.7
2022-11-20T07:02:56.861Z,518
2022-11-20T07:04:56.889Z,544.6
2022-11-20T07:11:55.719Z,445.9
2022-11-20T07:12:02.353Z,445.9
2022-11-20T07:13:51.468Z,445.9
2022-11-20T07:15:50.455Z,445.9
2022-11-20T07:17:51.091Z,468.7
2022-11-20T07:19:50.984Z,492.7
2022-11-20T07:21:50.458Z,468.7
2022-11-20T07:23:54.439Z,445.9
2022-11-20T07:25:51.252Z,403.4
2022-11-20T07:27:54.564Z,347.2
2022-11-20T07:29:51.447Z,298.9
2022-11-20T07:31:50.743Z,314.2
2022-11-20T07:33:51.224Z,314.2
2022-11-20T07:35:51.304Z,330.3
2022-11-20T07:37:51.149Z,330.3
2022-11-20T07:39:54.838Z,347.2
2022-11-20T07:41:50.493Z,347.2
2022-11-20T07:43:57.702Z,383.8
2022-11-20T07:45:50.761Z,383.8
2022-11-20T07:47:51.198Z,365
2022-11-20T07:49:51.198Z,365
2022-11-20T07:51:52.022Z,365
2022-11-20T07:53:54.413Z,403.4
2022-11-20T07:55:51.479Z,424.1
2022-11-20T07:57:57.586Z,445.9
2022-11-20T07:59:50.493Z,492.7
2022-11-20T08:01:50.881Z,544.6
2022-11-20T08:05:51.036Z,492.7
2022-11-20T08:07:50.447Z,468.7
2022-11-20T08:09:58.562Z,424.1
2022-11-20T08:11:51.427Z,424.1
2022-11-20T08:13:50.912Z,468.7
2022-11-20T08:15:54.363Z,665.1
2022-11-20T08:18:08.544Z,665.1
2022-11-20T08:19:50.499Z,632.7
2022-11-20T08:21:54.572Z,601.8
2022-11-20T08:23:50.462Z,665.1
2022-11-20T08:25:51.484Z,632.7
2022-11-20T08:27:51.290Z,601.8
2022-11-20T08:29:51.271Z,665.1
2022-11-20T08:31:56.568Z,601.8
2022-11-20T08:33:57.672Z,601.8
2022-11-20T08:35:54.563Z,665.1
2022-11-20T08:37:50.509Z,665.1
2022-11-20T08:39:50.789Z,632.7
2022-11-20T08:41:51.167Z,699.2
2022-11-20T08:43:51.225Z,735.1
2022-11-20T08:45:50.999Z,665.1
2022-11-20T08:47:58.083Z,632.7
2022-11-20T08:49:51.155Z,632.7
2022-11-20T08:51:51.274Z,632.7
2022-11-20T08:53:54.317Z,735.1
2022-11-20T08:55:51.647Z,772.8
2022-11-20T08:57:51.329Z,735.1
2022-11-20T09:00:05.362Z,735.1
2022-11-20T09:01:51.244Z,812.4
2022-11-20T09:03:54.412Z,897.8
2022-11-20T09:05:51.059Z,1096.6
2022-11-20T09:07:57.676Z,1152.9
2022-11-20T09:10:09.960Z,1212
2022-11-20T09:11:57.731Z,1212
2022-11-20T09:13:50.557Z,1152.9
2022-11-20T09:15:54.568Z,1152.9
2022-11-20T09:17:57.652Z,1480.3
2022-11-20T09:19:51.079Z,1636
2022-11-20T09:21:50.709Z,1808
2022-11-20T09:23:50.615Z,1808
2022-11-20T09:25:51.189Z,1719.9
2022-11-20T09:27:54.768Z,1556.2
2022-11-20T09:29:51.020Z,1636
2022-11-20T09:31:50.670Z,1719.9
2022-11-20T09:33:51.391Z,1719.9
2022-11-20T09:35:54.409Z,1719.9
2022-11-20T09:37:51.107Z,1636
2022-11-20T09:39:50.537Z,1719.9
2022-11-20T09:41:54.787Z,1998.2
2022-11-20T09:43:57.626Z,2100.6
2022-11-20T09:45:51.131Z,1998.2
2022-11-20T09:47:50.980Z,1998.2
2022-11-20T09:49:54.454Z,2100.6
2022-11-20T09:53:50.537Z,1636
2022-11-20T09:55:54.336Z,1480.3
2022-11-20T09:57:51.366Z,1636
2022-11-20T09:59:51.221Z,1719.9
2022-11-20T10:01:50.768Z,1900.7
2022-11-20T10:03:51.084Z,1998.2
2022-11-20T10:05:51.299Z,1998.2
2022-11-20T10:07:51.175Z,1808
2022-11-20T10:09:51.073Z,1719.9
2022-11-20T10:11:51.387Z,1636
2022-11-20T10:13:50.966Z,1636
2022-11-20T10:15:51.506Z,1900.7
2022-11-20T10:17:54.362Z,2208.3
2022-11-20T10:19:51.292Z,2321.6
2022-11-20T10:21:51.380Z,2440.6
2022-11-20T10:25:51.252Z,3133.8
2022-11-20T10:27:54.624Z,3294.5
2022-11-20T10:29:50.992Z,3133.8
2022-11-20T10:31:50.695Z,2835.6
2022-11-20T10:34:10.942Z,2835.6
2022-11-20T10:35:50.400Z,2835.6
2022-11-20T10:37:50.538Z,3294.5
2022-11-20T10:39:51.420Z,4023.9
2022-11-20T10:41:54.674Z,2981
2022-11-20T10:43:54.507Z,2440.6
2022-11-20T10:45:50.548Z,2565.7
2022-11-20T10:47:50.551Z,2981
2022-11-20T10:49:51.213Z,3463.4
2022-11-20T10:51:51.033Z,3827.6
2022-11-20T10:53:50.940Z,5166.8
2022-11-20T10:55:57.731Z,9414.4
2022-11-20T10:57:50.557Z,16317.6
2022-11-20T10:59:57.667Z,4230.2
2022-11-20T11:03:54.514Z,3133.8
2022-11-20T11:05:50.620Z,2697.3
2022-11-20T11:07:50.686Z,1900.7
2022-11-20T11:09:51.077Z,1408.1
2022-11-20T11:11:54.849Z,1339.4
2022-11-20T11:13:51.046Z,1408.1
2022-11-20T11:15:51.092Z,1636
2022-11-20T11:17:50.676Z,1998.2
2022-11-20T11:19:51.087Z,1998.2
2022-11-20T11:21:55.313Z,2565.7
2022-11-20T11:23:55.593Z,3294.5
2022-11-20T11:25:54.508Z,2981
2022-11-20T11:27:54.430Z,2321.6
2022-11-20T11:29:54.725Z,1998.2
2022-11-20T11:31:54.724Z,1719.9
2022-11-20T11:33:51.092Z,1408.1
2022-11-20T11:35:51.668Z,1719.9
2022-11-20T11:39:59.408Z,2208.3
2022-11-20T11:43:51.500Z,3294.5
2022-11-20T11:45:50.489Z,3827.6
2022-11-20T11:47:54.409Z,2697.3
2022-11-20T11:49:54.429Z,1998.2
2022-11-20T11:51:51.347Z,1636
2022-11-20T11:53:51.304Z,1556.2
2022-11-20T11:55:51.075Z,1636
2022-11-20T11:57:51.224Z,1480.3
2022-11-20T11:59:51.272Z,1408.1
2022-11-20T12:01:50.813Z,1339.4
2022-11-20T12:03:51.515Z,1152.9
2022-11-20T12:05:54.579Z,1152.9
2022-11-20T12:09:54.679Z,1339.4
2022-11-20T12:11:51.533Z,1408.1
2022-11-20T12:13:51.122Z,1808
2022-11-20T12:15:50.526Z,1636
2022-11-20T12:17:51.254Z,1556.2
2022-11-20T12:21:51.305Z,1998.2
2022-11-20T12:23:51.436Z,1556.2
2022-11-20T12:25:57.681Z,1480.3
2022-11-20T12:27:57.753Z,1480.3
2022-11-20T12:29:51.145Z,1339.4
2022-11-20T12:31:51.231Z,992.3
2022-11-20T12:33:50.446Z,854.1
2022-11-20T12:35:51.425Z,897.8
2022-11-20T12:37:51.448Z,943.9
2022-11-20T12:39:54.250Z,1152.9
2022-11-20T12:41:51.293Z,1212
2022-11-20T12:43:50.975Z,1212
2022-11-20T12:45:50.704Z,1408.1
2022-11-20T12:47:54.306Z,1212
2022-11-20T12:49:50.946Z,1212
2022-11-20T12:51:57.742Z,1096.6
2022-11-20T12:53:51.165Z,992.3
2022-11-20T12:55:51.368Z,1043.1
2022-11-20T12:57:50.673Z,1274.1
2022-11-20T12:59:50.912Z,1152.9
2022-11-20T13:01:50.534Z,1096.6
2022-11-20T13:03:51.530Z,1043.1
2022-11-20T13:05:57.848Z,992.3
2022-11-20T13:07:51.008Z,854.1
2022-11-20T13:11:51.311Z,812.4
2022-11-20T13:13:51.170Z,812.4
2022-11-20T13:15:51.047Z,735.1
2022-11-20T13:17:50.479Z,772.8
2022-11-20T13:19:51.275Z,812.4
2022-11-20T13:21:55.946Z,699.2
2022-11-20T13:23:50.741Z,632.7
2022-11-20T13:25:50.578Z,468.7
2022-11-20T13:27:51.516Z,445.9
2022-11-20T13:29:51.526Z,445.9
2022-11-20T13:31:51.658Z,601.8
2022-11-20T13:33:51.457Z,854.1
2022-11-20T13:35:51.288Z,1274.1
2022-11-20T13:37:51.081Z,1480.3
2022-11-20T13:39:51.614Z,1274.1
2022-11-20T13:41:51.308Z,1339.4
2022-11-20T13:43:51.235Z,2208.3
2022-11-20T13:45:51.078Z,2440.6
2022-11-20T13:47:54.453Z,1719.9
2022-11-20T13:49:54.486Z,1719.9
2022-11-20T13:51:51.472Z,1998.2
2022-11-20T13:53:50.705Z,2321.6
2022-11-20T13:55:51.660Z,2321.6
2022-11-20T13:59:51.149Z,2100.6
2022-11-20T14:01:50.913Z,1900.7
2022-11-20T14:04:05.448Z,1339.4
2022-11-20T14:05:50.784Z,1152.9
2022-11-20T14:07:54.713Z,1998.2
2022-11-20T14:09:50.997Z,1998.2
2022-11-20T14:11:50.702Z,2321.6
2022-11-20T14:13:50.538Z,1900.7
2022-11-20T14:15:51.170Z,1408.1
2022-11-20T14:17:51.188Z,992.3
2022-11-20T14:19:51.539Z,812.4
2022-11-20T14:21:51.372Z,943.9
2022-11-20T14:23:51.195Z,1480.3
2022-11-20T14:25:51.245Z,1408.1
2022-11-20T14:27:54.594Z,1152.9
2022-11-20T14:29:51.453Z,1152.9
2022-11-20T14:31:54.109Z,992.3
2022-11-20T14:33:50.632Z,735.1
2022-11-20T14:35:54.594Z,544.6
2022-11-20T14:37:54.155Z,468.7
2022-11-20T14:39:57.490Z,383.8
2022-11-20T14:41:51.183Z,314.2
2022-11-20T14:43:51.468Z,347.2
2022-11-20T14:45:54.579Z,424.1
2022-11-20T14:47:50.601Z,518
2022-11-20T14:49:50.601Z,572.5
2022-11-20T14:51:50.602Z,518
2022-11-20T14:53:51.038Z,365
2022-11-20T14:55:53.842Z,284.3
2022-11-20T14:57:51.418Z,244.7
2022-11-20T14:59:51.086Z,244.7
2022-11-20T15:01:50.827Z,232.8
2022-11-20T15:03:51.086Z,221.4
2022-11-20T15:05:51.210Z,200.3
2022-11-20T15:07:50.756Z,190.6
2022-11-20T15:09:50.859Z,164
2022-11-20T15:11:51.471Z,134.3
2022-11-20T15:13:51.335Z,121.5
2022-11-20T15:15:51.288Z,115.6
2022-11-20T15:17:51.247Z,104.6
2022-11-20T15:19:51.298Z,94.6
2022-11-20T15:21:57.863Z,81.5
2022-11-20T15:23:54.531Z,66.7
2022-11-20T15:25:51.365Z,57.4
2022-11-20T15:27:51.502Z,51.9
2022-11-20T15:31:54.889Z,31.5
2022-11-20T15:33:54.367Z,24.5
2022-11-20T15:35:50.470Z,21.1
2022-11-20T15:37:50.694Z,21.1
2022-11-20T15:39:51.269Z,22.2
2022-11-20T15:41:57.728Z,19.1
2022-11-20T15:43:51.014Z,12.8
2022-11-20T15:45:51.231Z,8.2
2022-11-20T15:47:51.060Z,5.8
2022-11-20T15:49:50.727Z,4.1
2022-11-20T15:51:52.009Z,2.9
2022-11-20T15:53:54.493Z,1.8
2022-11-20T15:55:51.534Z,1.3
2022-11-20T15:57:51.485Z,0.8
2022-11-20T15:59:51.101Z,0.6
2022-11-20T16:01:51.333Z,0.4
2022-11-20T16:03:54.621Z,0.3
2022-11-20T16:07:54.550Z,0.2
2022-11-20T16:09:51.218Z,0.1
2022-11-20T16:11:51.153Z,0
2022-11-20T16:13:51.152Z,0
2022-11-20T16:15:51.111Z,0
2022-11-20T16:17:54.453Z,0
2022-11-20T16:19:51.316Z,0
2022-11-20T16:21:50.758Z,0
2022-11-20T16:23:50.729Z,0
2022-11-20T16:25:54.350Z,0
2022-11-20T16:27:50.675Z,1
2022-11-20T16:29:54.311Z,1
2022-11-20T16:33:51.100Z,1
2022-11-20T16:35:51.312Z,1
2022-11-20T16:37:50.544Z,1
2022-11-20T16:39:50.527Z,1
2022-11-20T16:41:51.147Z,1
2022-11-20T16:43:51.438Z,1
2022-11-20T16:45:51.249Z,1
2022-11-20T16:47:51.485Z,1
2022-11-20T16:49:54.564Z,1
2022-11-20T16:51:54.032Z,1
2022-11-20T16:53:50.971Z,1
2022-11-20T16:55:51.213Z,1
2022-11-20T16:57:54.647Z,1
2022-11-20T16:59:50.756Z,1
2022-11-20T17:01:54.809Z,1
2022-11-20T17:03:51.530Z,1
2022-11-20T17:05:50.707Z,1
2022-11-20T17:07:50.674Z,1
2022-11-20T17:09:50.744Z,1
2022-11-20T17:11:50.746Z,1
2022-11-20T17:13:50.965Z,1
2022-11-20T17:15:50.842Z,1
2022-11-20T17:17:51.403Z,1
2022-11-20T17:19:54.735Z,1
2022-11-20T17:21:51.828Z,1
2022-11-20T17:23:50.688Z,1
2022-11-20T17:25:51.325Z,1
2022-11-20T17:27:51.282Z,1
2022-11-20T17:29:51.636Z,1
2022-11-20T17:31:50.780Z,1
2022-11-20T17:33:54.242Z,1
2022-11-20T17:35:53.906Z,1
2022-11-20T17:37:51.405Z,1
2022-11-20T17:39:50.487Z,1
2022-11-20T17:41:50.579Z,1
2022-11-20T17:43:50.713Z,1
2022-11-20T17:45:51.437Z,1
2022-11-20T17:47:57.666Z,1
2022-11-20T17:49:51.658Z,1
2022-11-20T17:51:58.297Z,1
2022-11-20T17:57:38.816Z,1
2022-11-20T17:57:42.828Z,1
2022-11-20T17:59:47.632Z,1
2022-11-20T18:06:17.213Z,1
2022-11-20T18:06:17.224Z,1
2022-11-20T18:11:46.829Z,1
2022-11-20T18:14:24.059Z,1
2022-11-20T18:18:48.251Z,1
2022-11-20T18:25:33.721Z,1
2022-11-20T18:25:41.829Z,1
2022-11-20T18:27:37.092Z,1
2022-11-20T18:29:36.933Z,1
2022-11-20T18:31:37.243Z,1
2022-11-20T18:33:41.315Z,1
2022-11-20T18:35:37.175Z,1
2022-11-20T18:37:41.150Z,1
2022-11-20T18:39:36.807Z,1
2022-11-20T18:41:38.233Z,1
2022-11-20T18:43:36.972Z,1
2022-11-20T18:45:36.850Z,1
2022-11-20T18:47:38.252Z,1
2022-11-20T18:49:37.140Z,1
2022-11-20T18:51:37.931Z,1
2022-11-20T18:53:44.431Z,1
2022-11-20T18:55:37.434Z,1
2022-11-20T18:57:41.401Z,1
2022-11-20T18:59:40.544Z,1
2022-11-20T19:01:36.509Z,1
2022-11-20T19:03:36.898Z,1
2022-11-20T19:05:45.479Z,1
2022-11-20T19:07:36.976Z,1
2022-11-20T19:09:37.127Z,1
2022-11-20T19:11:37.463Z,1
2022-11-20T19:13:45.613Z,1
2022-11-20T19:15:40.519Z,1
2022-11-20T19:19:36.892Z,1
2022-11-20T19:23:37.179Z,1
2022-11-20T19:25:38.042Z,1
2022-11-20T19:27:37.253Z,1
2022-11-20T19:31:37.338Z,1
2022-11-20T19:33:40.494Z,1
2022-11-20T19:35:37.674Z,1
2022-11-20T19:39:37.200Z,1
2022-11-20T19:41:37.301Z,1
2022-11-20T19:43:44.733Z,1
2022-11-20T19:45:40.504Z,1
2022-11-20T19:48:06.422Z,1
2022-11-20T19:49:36.927Z,1
2022-11-20T19:51:37.074Z,1
2022-11-20T19:53:40.260Z,1
2022-11-20T19:55:37.241Z,1
2022-11-20T19:57:37.220Z,1
2022-11-20T19:59:38.247Z,1
2022-11-20T20:01:40.578Z,1
2022-11-20T20:03:36.999Z,1
2022-11-20T20:05:37.235Z,1
2022-11-20T20:07:40.311Z,1
2022-11-20T20:09:37.341Z,1
2022-11-20T20:11:37.060Z,1
2022-11-20T20:13:36.920Z,1
2022-11-20T20:15:40.437Z,1
2022-11-20T20:17:36.395Z,1
2022-11-20T20:21:37.176Z,1
2022-11-20T20:23:36.817Z,1
2022-11-20T20:25:37.012Z,1
2022-11-20T20:27:36.537Z,1
2022-11-20T20:29:41.951Z,1
2022-11-20T20:31:37.456Z,1
2022-11-20T20:33:40.402Z,1
2022-11-20T20:35:36.890Z,1
2022-11-20T20:37:37.078Z,1
2022-11-20T20:39:40.446Z,1
2022-11-20T20:41:37.121Z,1
2022-11-20T20:43:39.718Z,1
2022-11-20T20:45:40.079Z,1
2022-11-20T20:47:43.555Z,1
2022-11-20T20:49:36.560Z,1
2022-11-20T20:51:43.566Z,1
2022-11-20T20:53:36.911Z,1
2022-11-20T20:55:36.728Z,1
2022-11-20T20:57:43.249Z,1
2022-11-20T20:59:36.872Z,1
2022-11-20T21:01:37.129Z,1
2022-11-20T21:03:37.235Z,1
2022-11-20T21:05:39.751Z,1
2022-11-20T21:07:37.361Z,1
2022-11-20T21:09:40.645Z,1
2022-11-20T21:11:36.943Z,1
2022-11-20T21:13:37.161Z,1
2022-11-20T21:15:39.786Z,1
2022-11-20T21:17:40.447Z,1
2022-11-20T21:19:36.573Z,1
2022-11-20T21:21:41.826Z,1
2022-11-20T21:23:43.671Z,1
2022-11-20T21:25:37.258Z,1
2022-11-20T21:27:37.206Z,1
2022-11-20T21:29:41.970Z,1
2022-11-20T21:31:43.643Z,1
2022-11-20T21:33:37.148Z,1
2022-11-20T21:35:37.172Z,1
2022-11-20T21:37:40.768Z,1
2022-11-20T21:39:36.823Z,1
2022-11-20T21:41:39.634Z,1
2022-11-20T21:43:37.017Z,1
2022-11-20T21:45:40.378Z,1
2022-11-20T21:47:36.942Z,1
2022-11-20T21:49:37.108Z,1
2022-11-20T21:51:39.655Z,1
2022-11-20T21:53:37.184Z,1
2022-11-20T21:55:40.660Z,1
2022-11-20T21:57:36.932Z,1
2022-11-20T21:59:36.531Z,1
2022-11-20T22:01:44.941Z,1
2022-11-20T22:03:37.085Z,1
2022-11-20T22:05:36.943Z,1
2022-11-20T22:07:37.268Z,1
2022-11-20T22:09:43.676Z,1
2022-11-20T22:11:36.958Z,1
2022-11-20T22:13:37.080Z,1
2022-11-20T22:15:53.402Z,1
2022-11-20T22:17:36.931Z,1
2022-11-20T22:19:45.086Z,1
2022-11-20T22:21:37.228Z,1
2022-11-20T22:23:37.084Z,1
2022-11-20T22:25:36.952Z,1
2022-11-20T22:27:36.956Z,1
2022-11-20T22:29:40.125Z,1
2022-11-20T22:31:37.058Z,1
2022-11-20T22:33:37.118Z,1
2022-11-20T22:35:38.053Z,1
2022-11-20T22:37:36.480Z,1
2022-11-20T22:39:36.456Z,1
2022-11-20T22:41:37.055Z,1
2022-11-20T22:43:46.459Z,1
2022-11-20T22:45:37.009Z,1
2022-11-20T22:47:36.915Z,1
2022-11-20T22:49:36.484Z,1
2022-11-20T22:51:41.558Z,1
2022-11-20T22:53:36.970Z,1
2022-11-20T22:55:43.799Z,1
2022-11-20T22:57:36.902Z,1
2022-11-20T22:59:36.966Z,1
2022-11-20T23:01:44.227Z,1
2022-11-20T23:03:37.076Z,1
2022-11-20T23:05:40.461Z,1
2022-11-20T23:07:41.168Z,1
2022-11-20T23:09:37.013Z,1
2022-11-20T23:11:40.571Z,1
2022-11-20T23:13:37.270Z,1
2022-11-20T23:15:37.190Z,1
2022-11-20T23:17:36.957Z,1
2022-11-20T23:19:43.364Z,1
2022-11-20T23:21:37.172Z,1
2022-11-20T23:23:37.117Z,1
2022-11-20T23:25:37.393Z,1
2022-11-20T23:27:38.735Z,1
2022-11-20T23:29:40.547Z,1
2022-11-20T23:31:37.269Z,1
2022-11-20T23:33:40.627Z,1
2022-11-20T23:35:43.924Z,1
2022-11-20T23:37:37.167Z,1
2022-11-20T23:39:36.895Z,1
2022-11-20T23:41:37.147Z,1
2022-11-20T23:43:41.812Z,1
2022-11-20T23:45:36.968Z,1
2022-11-20T23:47:37.272Z,1
2022-11-20T23:49:37.416Z,1
2022-11-20T23:51:37.383Z,1
2022-11-20T23:53:40.496Z,1
2022-11-20T23:55:37.155Z,1
2022-11-20T23:57:43.000Z,1
2022-11-20T23:59:37.255Z,1
